DRGN03 YWLM-YWLM
Flight info
| Callsign | DRGN03 |
|---|---|
| Flight time | 0h 8m |
| Altitude | 29000 |
| Route | NELSN DCT 332048S1524624E DCT WM20C DCT 331500S1522954E 321502S1524728E 314719S1530040E 311943S1531412E 304437S1533041E 300436S1541700E DCT AM15C DCT 295530S1535630E DCT NOMIT DCT SEMAJ DCT CG |
| Aircraft | A332/H-SDE3GHIJ2J3J5M1RVWXY/LB2D1 |
Departure
| Time | 2026-04-26 11:27 |
|---|---|
| Airport | Newcastle Airport (YWLM) |
Arrival
| Time | 2026-04-26 11:36 |
|---|---|
| Airport | Newcastle Airport (YWLM) |
| Time | Latitude | Longitude | Altitude | Speed | Heading |
|---|---|---|---|---|---|
| 2026-04-26 11:27 | -32.82019 | 152.12783 | 3095 ft | 273 kts | 243° |
| 2026-04-26 11:27 | -32.82895 | 152.10783 | 3093 ft | 271 kts | 243° |
| 2026-04-26 11:27 | -32.83750 | 152.08782 | 3092 ft | 271 kts | 246° |
| 2026-04-26 11:28 | -32.84393 | 152.06661 | 3093 ft | 272 kts | 253° |
| 2026-04-26 11:28 | -32.84972 | 152.04520 | 3089 ft | 272 kts | 253° |
| 2026-04-26 11:28 | -32.85553 | 152.02382 | 3087 ft | 271 kts | 252° |
| 2026-04-26 11:28 | -32.86133 | 152.00240 | 3090 ft | 272 kts | 252° |
| 2026-04-26 11:29 | -32.86713 | 151.98096 | 3090 ft | 272 kts | 252° |
| 2026-04-26 11:29 | -32.87253 | 151.95931 | 3083 ft | 272 kts | 261° |
| 2026-04-26 11:29 | -32.87262 | 151.93691 | 3084 ft | 271 kts | 281° |
| 2026-04-26 11:29 | -32.86569 | 151.91674 | 2962 ft | 262 kts | 312° |
| 2026-04-26 11:30 | -32.85191 | 151.90314 | 2138 ft | 270 kts | 328° |
| 2026-04-26 11:30 | -32.84135 | 151.89418 | 1611 ft | 278 kts | 325° |
| 2026-04-26 11:30 | -32.82264 | 151.87248 | 844 ft | 287 kts | 311° |
| 2026-04-26 11:30 | -32.81017 | 151.85458 | 807 ft | 273 kts | 310° |
| 2026-04-26 11:31 | -32.79803 | 151.83740 | 974 ft | 269 kts | 312° |
| 2026-04-26 11:31 | -32.78645 | 151.82106 | 1420 ft | 249 kts | 311° |
| 2026-04-26 11:31 | -32.77668 | 151.80443 | 1610 ft | 244 kts | 293° |
| 2026-04-26 11:31 | -32.77666 | 151.78474 | 1672 ft | 241 kts | 248° |
| 2026-04-26 11:32 | -32.78762 | 151.77005 | 1468 ft | 248 kts | 206° |
| 2026-04-26 11:32 | -32.80386 | 151.76885 | 1281 ft | 225 kts | 152° |
| 2026-04-26 11:32 | -32.81548 | 151.77931 | 1393 ft | 199 kts | 134° |
| 2026-04-26 11:32 | -32.82508 | 151.78981 | 1395 ft | 174 kts | 133° |
| 2026-04-26 11:33 | -32.83320 | 151.79887 | 1437 ft | 149 kts | 131° |
| 2026-04-26 11:33 | -32.84055 | 151.80767 | 1409 ft | 155 kts | 128° |
| 2026-04-26 11:33 | -32.84806 | 151.81748 | 1588 ft | 163 kts | 128° |
| 2026-04-26 11:33 | -32.85497 | 151.82800 | 1687 ft | 162 kts | 115° |
| 2026-04-26 11:34 | -32.85749 | 151.84056 | 1733 ft | 157 kts | 84° |
| 2026-04-26 11:34 | -32.85354 | 151.85258 | 1678 ft | 163 kts | 52° |
| 2026-04-26 11:34 | -32.84392 | 151.86014 | 1425 ft | 174 kts | 20° |
| 2026-04-26 11:34 | -32.83183 | 151.86338 | 1184 ft | 172 kts | 13° |
| 2026-04-26 11:35 | -32.82056 | 151.86400 | 892 ft | 158 kts | 352° |
| 2026-04-26 11:35 | -32.81145 | 151.85717 | 360 ft | 161 kts | 309° |
| 2026-04-26 11:35 | -32.80467 | 151.84711 | 45 ft | 149 kts | 311° |
| 2026-04-26 11:35 | -32.80048 | 151.84124 | 39 ft | 130 kts | 311° |
| 2026-04-26 11:36 | -32.79469 | 151.83314 | 34 ft | 62 kts | 310° |
| 2026-04-26 11:36 | -32.79284 | 151.83057 | 38 ft | 17 kts | 310° |
| 2026-04-26 11:36 | -32.79203 | 151.83023 | 39 ft | 12 kts | 18° |
| 2026-04-26 11:36 | -32.79141 | 151.83082 | 40 ft | 12 kts | 49° |
| 2026-04-26 11:37 | -32.79141 | 151.83135 | 40 ft | 5 kts | 115° |
| 2026-04-26 11:37 | -32.79160 | 151.83167 | 40 ft | 10 kts | 127° |
| 2026-04-26 11:37 | -32.79242 | 151.83285 | 40 ft | 16 kts | 130° |
| 2026-04-26 11:37 | -32.79294 | 151.83357 | 38 ft | 18 kts | 130° |
| 2026-04-26 11:38 | -32.79383 | 151.83483 | 36 ft | 21 kts | 130° |
| 2026-04-26 11:38 | -32.79476 | 151.83615 | 35 ft | 21 kts | 130° |
| 2026-04-26 11:38 | -32.79560 | 151.83734 | 36 ft | 15 kts | 124° |
| 2026-04-26 11:38 | -32.79547 | 151.83842 | 39 ft | 13 kts | 63° |
| 2026-04-26 11:39 | -32.79506 | 151.83914 | 38 ft | 7 kts | 67° |
| 2026-04-26 11:39 | -32.79532 | 151.83931 | 38 ft | 3 kts | 169° |
| 2026-04-26 11:39 | -32.79558 | 151.83926 | 39 ft | 4 kts | 186° |
| 2026-04-26 11:39 | -32.79590 | 151.83921 | 39 ft | 5 kts | 189° |
| 2026-04-26 11:40 | -32.79606 | 151.83918 | 38 ft | 0 kts | 189° |